Arviat Airport
CYEK : now visible

Airfield :











YOU CAN JOIN US ON...

 
LOGIN :

Register | Disclaimer

   EN    FR    IT 

 









Legend :    VFR   Marginal VFR   IFR   Intensive IFR   Very Intensive IFR
Visi :
Ceiling :
>= 8 km
>= 3000ft
5 to 8 km
1000 to 3000 ft
1500m to 5 km
500 to 1000 ft
800 to 1500m
200 to 500 ft
< 800m
< 200 ft
Symbols :   Thunderstorms  Fog  Heavy snow  Heavy precipitations  Wind > 20 kt







- Airport Elevation : 32 ft
- IATA code : YEK


CYEK - Arviat

CURRENT METAR :
  • 252200Z 29006KT 15SM FEW100 OVC270 M14/M17 A3012 RMK AS1CI7 TR AFT 09UTC/LAST STFD OBS/NXT 261200Z SLP202

EXPIRED METARs :
  • 252100Z 31007KT 15SM IC OVC270 M15/M17 A3014 RMK CS8 SLP209
  • 252000Z 31010KT 15SM IC OVC270 M15/M18 A3016 RMK CS8 SLP217

TAF TAF CYEK
Valid from the 25 at 18:00 until the 26 at 06:00 UTC


251738Z 2518/2606 32015G25KT P6SM IC BKN200
BECMG 2519/2521 29008KT
BECMG 2522/2524 VRB03KT
FM260300 18015G25KT P6SM SCT040 BKN080 OVC200 RMK NXT FCST BY 260000Z
CZEG FIR / North America



MET'MAP, your aeronautical weather chart ! - Copyright ORBIFLY December 2007 - Disclaimer

ORBIFLY MET'MAP TEAM :

Programming & Development : Alexandra Zaïnal
Concept & Development : Baudouin d'Aumeries
Co-Development & Prog : Marc-Olivier Méhu
Technical & hardware support : Manuel Goepfert

Contact : metmap@orbifly.com




SOURCES & CREDITS :

   NOAA       Earth
Advisory